sensor_id;sensor_type;location;lat;lon;timestamp;P1;durP1;ratioP1;P2;durP2;ratioP2
68010;SDS011;54794;48.348;7.878;2023-03-03T00:06:18;5.72;;;3.05;;
68010;SDS011;54794;48.348;7.878;2023-03-03T00:10:25;8.15;;;3.35;;
68010;SDS011;54794;48.348;7.878;2023-03-03T00:25:59;7.88;;;3.92;;
68010;SDS011;54794;48.348;7.878;2023-03-03T00:46:53;6.70;;;3.63;;
68010;SDS011;54794;48.348;7.878;2023-03-03T00:50:42;7.15;;;3.72;;
68010;SDS011;54794;48.348;7.878;2023-03-03T00:58:13;8.60;;;3.78;;
68010;SDS011;54794;48.348;7.878;2023-03-03T01:05:28;5.82;;;3.42;;
68010;SDS011;54794;48.348;7.878;2023-03-03T01:16:35;7.15;;;3.83;;
68010;SDS011;54794;48.348;7.878;2023-03-03T01:24:38;7.57;;;3.58;;
68010;SDS011;54794;48.348;7.878;2023-03-03T01:55:51;6.30;;;3.45;;
68010;SDS011;54794;48.348;7.878;2023-03-03T01:59:50;5.85;;;3.35;;
68010;SDS011;54794;48.348;7.878;2023-03-03T02:03:11;6.63;;;3.47;;
68010;SDS011;54794;48.348;7.878;2023-03-03T02:17:37;5.18;;;3.10;;
68010;SDS011;54794;48.348;7.878;2023-03-03T02:25:06;7.82;;;3.72;;
68010;SDS011;54794;48.348;7.878;2023-03-03T02:32:22;8.52;;;4.00;;
68010;SDS011;54794;48.348;7.878;2023-03-03T02:43:36;9.38;;;4.45;;
68010;SDS011;54794;48.348;7.878;2023-03-03T02:55:25;9.80;;;3.83;;
68010;SDS011;54794;48.348;7.878;2023-03-03T03:03:17;8.90;;;4.75;;
68010;SDS011;54794;48.348;7.878;2023-03-03T03:06:51;7.18;;;3.72;;
68010;SDS011;54794;48.348;7.878;2023-03-03T03:14:51;8.90;;;4.35;;
68010;SDS011;54794;48.348;7.878;2023-03-03T03:17:18;10.23;;;5.45;;
68010;SDS011;54794;48.348;7.878;2023-03-03T03:19:45;10.25;;;4.93;;
68010;SDS011;54794;48.348;7.878;2023-03-03T03:22:12;9.90;;;4.43;;
68010;SDS011;54794;48.348;7.878;2023-03-03T03:24:39;7.18;;;3.95;;
68010;SDS011;54794;48.348;7.878;2023-03-03T03:27:06;8.73;;;4.28;;
68010;SDS011;54794;48.348;7.878;2023-03-03T03:29:33;7.45;;;4.18;;
68010;SDS011;54794;48.348;7.878;2023-03-03T03:32:00;9.65;;;5.03;;
68010;SDS011;54794;48.348;7.878;2023-03-03T03:34:27;8.80;;;4.57;;
68010;SDS011;54794;48.348;7.878;2023-03-03T03:36:54;8.65;;;4.85;;
68010;SDS011;54794;48.348;7.878;2023-03-03T03:39:21;8.45;;;4.72;;
68010;SDS011;54794;48.348;7.878;2023-03-03T03:41:48;8.13;;;4.43;;
68010;SDS011;54794;48.348;7.878;2023-03-03T03:44:15;9.48;;;4.97;;
68010;SDS011;54794;48.348;7.878;2023-03-03T03:46:42;9.35;;;4.82;;
68010;SDS011;54794;48.348;7.878;2023-03-03T03:49:09;11.15;;;5.05;;
68010;SDS011;54794;48.348;7.878;2023-03-03T03:51:36;8.52;;;4.57;;
68010;SDS011;54794;48.348;7.878;2023-03-03T03:54:06;8.25;;;4.90;;
68010;SDS011;54794;48.348;7.878;2023-03-03T03:56:33;9.18;;;4.95;;
68010;SDS011;54794;48.348;7.878;2023-03-03T03:59:01;10.85;;;5.38;;
68010;SDS011;54794;48.348;7.878;2023-03-03T04:01:28;10.50;;;4.93;;
68010;SDS011;54794;48.348;7.878;2023-03-03T04:03:55;9.15;;;4.53;;
68010;SDS011;54794;48.348;7.878;2023-03-03T04:06:23;10.90;;;5.13;;
68010;SDS011;54794;48.348;7.878;2023-03-03T04:11:18;7.18;;;3.75;;
68010;SDS011;54794;48.348;7.878;2023-03-03T04:13:45;8.13;;;4.22;;
68010;SDS011;54794;48.348;7.878;2023-03-03T04:16:13;7.45;;;4.35;;
68010;SDS011;54794;48.348;7.878;2023-03-03T04:18:41;8.13;;;4.60;;
68010;SDS011;54794;48.348;7.878;2023-03-03T04:21:12;11.45;;;5.78;;
68010;SDS011;54794;48.348;7.878;2023-03-03T04:23:41;10.30;;;5.15;;
68010;SDS011;54794;48.348;7.878;2023-03-03T04:26:09;12.63;;;5.68;;
68010;SDS011;54794;48.348;7.878;2023-03-03T04:28:36;9.35;;;4.18;;
68010;SDS011;54794;48.348;7.878;2023-03-03T04:31:04;9.93;;;4.95;;
68010;SDS011;54794;48.348;7.878;2023-03-03T04:33:32;10.43;;;5.18;;
68010;SDS011;54794;48.348;7.878;2023-03-03T04:36:00;9.32;;;5.00;;
68010;SDS011;54794;48.348;7.878;2023-03-03T04:38:27;7.35;;;4.45;;
68010;SDS011;54794;48.348;7.878;2023-03-03T04:43:22;9.55;;;4.15;;
68010;SDS011;54794;48.348;7.878;2023-03-03T04:48:17;6.90;;;3.78;;
68010;SDS011;54794;48.348;7.878;2023-03-03T04:53:12;7.35;;;3.85;;
68010;SDS011;54794;48.348;7.878;2023-03-03T04:58:07;8.38;;;4.32;;
68010;SDS011;54794;48.348;7.878;2023-03-03T05:00:36;9.68;;;4.82;;
68010;SDS011;54794;48.348;7.878;2023-03-03T05:03:04;10.05;;;5.53;;
68010;SDS011;54794;48.348;7.878;2023-03-03T05:05:31;10.88;;;5.82;;
68010;SDS011;54794;48.348;7.878;2023-03-03T05:07:59;9.45;;;5.05;;
68010;SDS011;54794;48.348;7.878;2023-03-03T05:10:27;9.75;;;5.10;;
68010;SDS011;54794;48.348;7.878;2023-03-03T05:12:55;9.13;;;4.68;;
68010;SDS011;54794;48.348;7.878;2023-03-03T05:15:22;10.63;;;5.15;;
68010;SDS011;54794;48.348;7.878;2023-03-03T05:17:50;10.30;;;5.20;;
68010;SDS011;54794;48.348;7.878;2023-03-03T05:20:18;11.45;;;5.72;;
68010;SDS011;54794;48.348;7.878;2023-03-03T05:22:46;8.32;;;4.20;;
68010;SDS011;54794;48.348;7.878;2023-03-03T05:25:14;10.48;;;5.22;;
68010;SDS011;54794;48.348;7.878;2023-03-03T05:27:42;11.90;;;5.95;;
68010;SDS011;54794;48.348;7.878;2023-03-03T05:30:10;11.60;;;5.63;;
68010;SDS011;54794;48.348;7.878;2023-03-03T05:32:38;10.95;;;5.80;;
68010;SDS011;54794;48.348;7.878;2023-03-03T05:35:05;10.48;;;5.53;;
68010;SDS011;54794;48.348;7.878;2023-03-03T05:37:33;11.75;;;6.50;;
68010;SDS011;54794;48.348;7.878;2023-03-03T05:40:01;11.18;;;6.15;;
68010;SDS011;54794;48.348;7.878;2023-03-03T05:42:29;14.00;;;5.65;;
68010;SDS011;54794;48.348;7.878;2023-03-03T05:44:57;10.90;;;5.25;;
68010;SDS011;54794;48.348;7.878;2023-03-03T05:47:25;9.48;;;5.03;;
68010;SDS011;54794;48.348;7.878;2023-03-03T05:52:19;7.82;;;4.38;;
68010;SDS011;54794;48.348;7.878;2023-03-03T05:54:48;9.27;;;4.13;;
68010;SDS011;54794;48.348;7.878;2023-03-03T05:57:15;10.52;;;5.57;;
68010;SDS011;54794;48.348;7.878;2023-03-03T05:59:43;11.05;;;5.25;;
68010;SDS011;54794;48.348;7.878;2023-03-03T06:02:10;8.65;;;4.43;;
68010;SDS011;54794;48.348;7.878;2023-03-03T06:04:38;10.85;;;4.97;;
68010;SDS011;54794;48.348;7.878;2023-03-03T06:09:36;7.80;;;4.28;;
68010;SDS011;54794;48.348;7.878;2023-03-03T06:12:03;8.63;;;4.13;;
68010;SDS011;54794;48.348;7.878;2023-03-03T06:14:31;10.32;;;5.18;;
68010;SDS011;54794;48.348;7.878;2023-03-03T06:16:58;9.07;;;4.60;;
68010;SDS011;54794;48.348;7.878;2023-03-03T06:19:26;9.32;;;4.72;;
68010;SDS011;54794;48.348;7.878;2023-03-03T06:21:53;8.95;;;5.00;;
68010;SDS011;54794;48.348;7.878;2023-03-03T06:24:21;8.75;;;4.45;;
68010;SDS011;54794;48.348;7.878;2023-03-03T06:26:50;9.68;;;5.05;;
68010;SDS011;54794;48.348;7.878;2023-03-03T06:29:18;9.88;;;4.80;;
68010;SDS011;54794;48.348;7.878;2023-03-03T06:31:45;9.55;;;5.25;;
68010;SDS011;54794;48.348;7.878;2023-03-03T06:36:41;9.45;;;4.72;;
68010;SDS011;54794;48.348;7.878;2023-03-03T06:41:36;9.90;;;5.03;;
68010;SDS011;54794;48.348;7.878;2023-03-03T06:44:04;9.32;;;4.68;;
68010;SDS011;54794;48.348;7.878;2023-03-03T06:46:32;12.57;;;5.00;;
68010;SDS011;54794;48.348;7.878;2023-03-03T06:49:00;10.02;;;5.05;;
68010;SDS011;54794;48.348;7.878;2023-03-03T06:51:31;9.75;;;5.13;;
68010;SDS011;54794;48.348;7.878;2023-03-03T06:56:46;9.10;;;5.00;;
68010;SDS011;54794;48.348;7.878;2023-03-03T06:59:20;10.13;;;5.20;;
68010;SDS011;54794;48.348;7.878;2023-03-03T07:01:48;13.02;;;5.55;;
68010;SDS011;54794;48.348;7.878;2023-03-03T07:04:24;11.85;;;5.47;;
68010;SDS011;54794;48.348;7.878;2023-03-03T07:06:59;13.77;;;5.40;;
68010;SDS011;54794;48.348;7.878;2023-03-03T07:09:43;9.63;;;5.53;;
68010;SDS011;54794;48.348;7.878;2023-03-03T07:12:14;10.90;;;5.45;;
68010;SDS011;54794;48.348;7.878;2023-03-03T07:14:49;10.93;;;5.65;;
68010;SDS011;54794;48.348;7.878;2023-03-03T07:17:44;10.10;;;5.43;;
68010;SDS011;54794;48.348;7.878;2023-03-03T07:20:23;12.05;;;5.65;;
68010;SDS011;54794;48.348;7.878;2023-03-03T07:22:58;10.85;;;5.68;;
68010;SDS011;54794;48.348;7.878;2023-03-03T07:25:31;12.95;;;5.82;;
68010;SDS011;54794;48.348;7.878;2023-03-03T07:28:48;11.00;;;5.55;;
68010;SDS011;54794;48.348;7.878;2023-03-03T07:30:54;10.55;;;5.60;;
68010;SDS011;54794;48.348;7.878;2023-03-03T07:36:28;9.82;;;5.32;;
68010;SDS011;54794;48.348;7.878;2023-03-03T07:39:02;11.00;;;5.28;;
68010;SDS011;54794;48.348;7.878;2023-03-03T07:42:14;10.68;;;4.65;;
68010;SDS011;54794;48.348;7.878;2023-03-03T07:44:55;9.55;;;5.20;;
68010;SDS011;54794;48.348;7.878;2023-03-03T07:47:29;9.80;;;4.50;;
68010;SDS011;54794;48.348;7.878;2023-03-03T07:50:14;10.63;;;4.78;;
68010;SDS011;54794;48.348;7.878;2023-03-03T07:52:57;11.13;;;5.93;;
68010;SDS011;54794;48.348;7.878;2023-03-03T08:04:00;7.97;;;4.47;;
68010;SDS011;54794;48.348;7.878;2023-03-03T08:14:54;10.57;;;5.85;;
68010;SDS011;54794;48.348;7.878;2023-03-03T08:17:24;12.70;;;5.95;;
68010;SDS011;54794;48.348;7.878;2023-03-03T08:20:07;10.90;;;5.72;;
68010;SDS011;54794;48.348;7.878;2023-03-03T08:22:59;10.07;;;5.32;;
68010;SDS011;54794;48.348;7.878;2023-03-03T08:25:26;12.32;;;6.15;;
68010;SDS011;54794;48.348;7.878;2023-03-03T08:27:55;12.13;;;6.20;;
68010;SDS011;54794;48.348;7.878;2023-03-03T08:30:22;11.43;;;6.38;;
68010;SDS011;54794;48.348;7.878;2023-03-03T08:32:49;11.23;;;6.00;;
68010;SDS011;54794;48.348;7.878;2023-03-03T08:35:18;12.40;;;6.55;;
68010;SDS011;54794;48.348;7.878;2023-03-03T08:37:46;15.68;;;6.80;;
68010;SDS011;54794;48.348;7.878;2023-03-03T08:40:13;12.80;;;6.40;;
68010;SDS011;54794;48.348;7.878;2023-03-03T08:42:40;11.55;;;6.22;;
68010;SDS011;54794;48.348;7.878;2023-03-03T08:45:07;14.18;;;7.30;;
68010;SDS011;54794;48.348;7.878;2023-03-03T08:47:34;11.38;;;6.53;;
68010;SDS011;54794;48.348;7.878;2023-03-03T08:50:01;10.57;;;5.88;;
68010;SDS011;54794;48.348;7.878;2023-03-03T08:52:36;13.18;;;7.03;;
68010;SDS011;54794;48.348;7.878;2023-03-03T08:55:26;12.45;;;6.45;;
68010;SDS011;54794;48.348;7.878;2023-03-03T08:57:58;11.38;;;5.93;;
68010;SDS011;54794;48.348;7.878;2023-03-03T09:01:13;9.95;;;5.43;;
68010;SDS011;54794;48.348;7.878;2023-03-03T09:03:48;13.18;;;7.07;;
68010;SDS011;54794;48.348;7.878;2023-03-03T09:06:26;12.43;;;6.60;;
68010;SDS011;54794;48.348;7.878;2023-03-03T09:09:06;12.80;;;6.47;;
68010;SDS011;54794;48.348;7.878;2023-03-03T09:11:35;13.88;;;6.28;;
68010;SDS011;54794;48.348;7.878;2023-03-03T09:14:26;13.90;;;7.22;;
68010;SDS011;54794;48.348;7.878;2023-03-03T09:21:28;10.38;;;5.68;;
68010;SDS011;54794;48.348;7.878;2023-03-03T09:24:35;14.15;;;6.43;;
68010;SDS011;54794;48.348;7.878;2023-03-03T09:30:26;13.15;;;6.82;;
68010;SDS011;54794;48.348;7.878;2023-03-03T09:34:53;9.98;;;5.63;;
68010;SDS011;54794;48.348;7.878;2023-03-03T09:38:26;10.68;;;6.00;;
68010;SDS011;54794;48.348;7.878;2023-03-03T10:22:32;11.15;;;5.75;;
68010;SDS011;54794;48.348;7.878;2023-03-03T10:34:17;11.98;;;6.32;;
68010;SDS011;54794;48.348;7.878;2023-03-03T10:50:13;15.63;;;8.65;;
68010;SDS011;54794;48.348;7.878;2023-03-03T10:58:29;16.48;;;7.53;;
68010;SDS011;54794;48.348;7.878;2023-03-03T11:01:25;17.05;;;8.45;;
68010;SDS011;54794;48.348;7.878;2023-03-03T11:04:23;13.47;;;7.30;;
68010;SDS011;54794;48.348;7.878;2023-03-03T11:10:03;12.57;;;6.97;;
68010;SDS011;54794;48.348;7.878;2023-03-03T11:13:05;14.80;;;8.32;;
68010;SDS011;54794;48.348;7.878;2023-03-03T11:21:45;15.00;;;8.35;;
68010;SDS011;54794;48.348;7.878;2023-03-03T11:27:37;16.80;;;8.25;;
68010;SDS011;54794;48.348;7.878;2023-03-03T11:33:11;16.07;;;8.90;;
68010;SDS011;54794;48.348;7.878;2023-03-03T11:38:56;14.80;;;8.55;;
68010;SDS011;54794;48.348;7.878;2023-03-03T11:47:56;15.23;;;8.90;;
68010;SDS011;54794;48.348;7.878;2023-03-03T11:51:02;15.75;;;8.30;;
68010;SDS011;54794;48.348;7.878;2023-03-03T11:59:00;18.63;;;10.43;;
68010;SDS011;54794;48.348;7.878;2023-03-03T12:05:30;17.05;;;9.35;;
68010;SDS011;54794;48.348;7.878;2023-03-03T12:11:25;15.98;;;8.23;;
68010;SDS011;54794;48.348;7.878;2023-03-03T12:25:37;18.10;;;10.15;;
68010;SDS011;54794;48.348;7.878;2023-03-03T12:33:55;19.42;;;11.35;;
68010;SDS011;54794;48.348;7.878;2023-03-03T12:36:39;20.00;;;11.25;;
68010;SDS011;54794;48.348;7.878;2023-03-03T12:42:56;17.20;;;9.48;;
68010;SDS011;54794;48.348;7.878;2023-03-03T12:48:18;18.88;;;9.88;;
68010;SDS011;54794;48.348;7.878;2023-03-03T12:57:23;19.42;;;11.10;;
68010;SDS011;54794;48.348;7.878;2023-03-03T13:00:14;18.13;;;9.93;;
68010;SDS011;54794;48.348;7.878;2023-03-03T13:06:22;19.02;;;10.82;;
68010;SDS011;54794;48.348;7.878;2023-03-03T13:16:05;21.92;;;11.35;;
68010;SDS011;54794;48.348;7.878;2023-03-03T13:19:07;17.13;;;9.65;;
68010;SDS011;54794;48.348;7.878;2023-03-03T13:24:32;16.20;;;10.05;;
68010;SDS011;54794;48.348;7.878;2023-03-03T13:27:22;20.52;;;11.10;;
68010;SDS011;54794;48.348;7.878;2023-03-03T13:30:02;19.25;;;10.10;;
68010;SDS011;54794;48.348;7.878;2023-03-03T13:33:08;16.52;;;10.05;;
68010;SDS011;54794;48.348;7.878;2023-03-03T13:35:58;30.45;;;11.25;;
68010;SDS011;54794;48.348;7.878;2023-03-03T13:38:42;19.75;;;11.18;;
68010;SDS011;54794;48.348;7.878;2023-03-03T13:44:03;19.77;;;10.38;;
68010;SDS011;54794;48.348;7.878;2023-03-03T13:50:08;20.50;;;10.82;;
68010;SDS011;54794;48.348;7.878;2023-03-03T13:58:54;17.50;;;10.07;;
68010;SDS011;54794;48.348;7.878;2023-03-03T14:02:22;21.23;;;10.90;;
68010;SDS011;54794;48.348;7.878;2023-03-03T14:08:02;18.42;;;11.05;;
68010;SDS011;54794;48.348;7.878;2023-03-03T14:11:02;18.67;;;10.50;;
68010;SDS011;54794;48.348;7.878;2023-03-03T14:19:24;19.50;;;10.82;;
68010;SDS011;54794;48.348;7.878;2023-03-03T14:39:58;18.45;;;9.75;;
68010;SDS011;54794;48.348;7.878;2023-03-03T15:27:34;16.58;;;9.93;;
68010;SDS011;54794;48.348;7.878;2023-03-03T15:30:38;14.45;;;8.90;;
68010;SDS011;54794;48.348;7.878;2023-03-03T16:40:17;12.85;;;7.10;;
68010;SDS011;54794;48.348;7.878;2023-03-03T16:46:22;13.70;;;7.85;;
68010;SDS011;54794;48.348;7.878;2023-03-03T16:49:14;11.40;;;6.80;;
68010;SDS011;54794;48.348;7.878;2023-03-03T16:52:09;12.57;;;7.05;;
68010;SDS011;54794;48.348;7.878;2023-03-03T16:54:54;12.30;;;7.40;;
68010;SDS011;54794;48.348;7.878;2023-03-03T16:57:31;12.75;;;7.43;;
68010;SDS011;54794;48.348;7.878;2023-03-03T17:06:03;11.48;;;6.93;;
68010;SDS011;54794;48.348;7.878;2023-03-03T17:11:48;12.65;;;7.53;;
68010;SDS011;54794;48.348;7.878;2023-03-03T17:14:34;10.60;;;6.50;;
68010;SDS011;54794;48.348;7.878;2023-03-03T17:20:46;13.18;;;7.20;;
68010;SDS011;54794;48.348;7.878;2023-03-03T17:43:05;13.13;;;7.25;;
68010;SDS011;54794;48.348;7.878;2023-03-03T17:45:43;11.88;;;6.30;;
68010;SDS011;54794;48.348;7.878;2023-03-03T17:48:39;14.25;;;7.68;;
68010;SDS011;54794;48.348;7.878;2023-03-03T17:57:36;13.95;;;6.88;;
68010;SDS011;54794;48.348;7.878;2023-03-03T18:00:38;10.20;;;5.90;;
68010;SDS011;54794;48.348;7.878;2023-03-03T18:03:43;9.73;;;5.60;;
68010;SDS011;54794;48.348;7.878;2023-03-03T18:07:15;9.52;;;5.80;;
68010;SDS011;54794;48.348;7.878;2023-03-03T18:26:50;14.45;;;8.20;;
68010;SDS011;54794;48.348;7.878;2023-03-03T18:29:25;14.90;;;8.27;;
68010;SDS011;54794;48.348;7.878;2023-03-03T18:42:56;11.23;;;6.20;;
68010;SDS011;54794;48.348;7.878;2023-03-03T18:48:08;12.90;;;6.88;;
68010;SDS011;54794;48.348;7.878;2023-03-03T18:55:59;12.45;;;6.68;;
68010;SDS011;54794;48.348;7.878;2023-03-03T18:58:29;13.20;;;7.07;;
68010;SDS011;54794;48.348;7.878;2023-03-03T19:03:36;14.68;;;7.40;;
68010;SDS011;54794;48.348;7.878;2023-03-03T19:09:17;15.02;;;7.90;;
68010;SDS011;54794;48.348;7.878;2023-03-03T19:12:09;12.43;;;7.18;;
68010;SDS011;54794;48.348;7.878;2023-03-03T19:14:39;14.63;;;7.78;;
68010;SDS011;54794;48.348;7.878;2023-03-03T19:26:39;12.88;;;7.60;;
68010;SDS011;54794;48.348;7.878;2023-03-03T19:35:31;13.93;;;7.85;;
68010;SDS011;54794;48.348;7.878;2023-03-03T19:41:41;13.93;;;7.40;;
68010;SDS011;54794;48.348;7.878;2023-03-03T19:44:35;11.88;;;6.65;;
68010;SDS011;54794;48.348;7.878;2023-03-03T19:50:19;12.77;;;7.43;;
68010;SDS011;54794;48.348;7.878;2023-03-03T20:02:01;14.90;;;7.93;;
68010;SDS011;54794;48.348;7.878;2023-03-03T20:14:09;15.23;;;7.68;;
68010;SDS011;54794;48.348;7.878;2023-03-03T20:17:16;15.25;;;8.57;;
68010;SDS011;54794;48.348;7.878;2023-03-03T20:29:25;14.60;;;7.57;;
68010;SDS011;54794;48.348;7.878;2023-03-03T20:35:38;18.02;;;8.90;;
68010;SDS011;54794;48.348;7.878;2023-03-03T20:59:38;12.38;;;6.97;;
68010;SDS011;54794;48.348;7.878;2023-03-03T21:05:36;14.38;;;6.95;;
68010;SDS011;54794;48.348;7.878;2023-03-03T21:11:16;12.27;;;6.97;;
68010;SDS011;54794;48.348;7.878;2023-03-03T21:14:16;14.45;;;7.22;;
68010;SDS011;54794;48.348;7.878;2023-03-03T21:16:51;13.40;;;6.53;;
68010;SDS011;54794;48.348;7.878;2023-03-03T21:19:23;13.20;;;7.10;;
68010;SDS011;54794;48.348;7.878;2023-03-03T21:21:57;12.45;;;6.65;;
68010;SDS011;54794;48.348;7.878;2023-03-03T21:32:44;12.13;;;6.53;;
68010;SDS011;54794;48.348;7.878;2023-03-03T21:35:15;14.57;;;7.05;;
68010;SDS011;54794;48.348;7.878;2023-03-03T21:37:48;14.35;;;6.93;;
68010;SDS011;54794;48.348;7.878;2023-03-03T21:40:21;11.23;;;6.68;;
68010;SDS011;54794;48.348;7.878;2023-03-03T21:42:55;11.60;;;7.05;;
68010;SDS011;54794;48.348;7.878;2023-03-03T21:45:25;12.82;;;6.80;;
68010;SDS011;54794;48.348;7.878;2023-03-03T21:47:52;14.02;;;6.88;;
68010;SDS011;54794;48.348;7.878;2023-03-03T21:50:20;15.13;;;8.85;;
68010;SDS011;54794;48.348;7.878;2023-03-03T21:52:47;14.30;;;7.65;;
68010;SDS011;54794;48.348;7.878;2023-03-03T21:55:14;17.67;;;7.25;;
68010;SDS011;54794;48.348;7.878;2023-03-03T21:57:41;15.75;;;8.40;;
68010;SDS011;54794;48.348;7.878;2023-03-03T22:00:08;14.75;;;7.53;;
68010;SDS011;54794;48.348;7.878;2023-03-03T22:02:36;12.48;;;6.45;;
68010;SDS011;54794;48.348;7.878;2023-03-03T22:05:03;13.43;;;7.18;;
68010;SDS011;54794;48.348;7.878;2023-03-03T22:07:32;11.82;;;6.72;;
68010;SDS011;54794;48.348;7.878;2023-03-03T22:09:59;11.27;;;6.18;;
68010;SDS011;54794;48.348;7.878;2023-03-03T22:12:26;14.32;;;7.38;;
68010;SDS011;54794;48.348;7.878;2023-03-03T22:14:53;14.60;;;6.53;;
68010;SDS011;54794;48.348;7.878;2023-03-03T22:17:20;11.18;;;6.38;;
68010;SDS011;54794;48.348;7.878;2023-03-03T22:19:50;14.85;;;6.75;;
68010;SDS011;54794;48.348;7.878;2023-03-03T22:22:17;14.05;;;6.55;;
68010;SDS011;54794;48.348;7.878;2023-03-03T22:24:44;12.30;;;7.03;;
68010;SDS011;54794;48.348;7.878;2023-03-03T22:27:11;11.57;;;6.63;;
68010;SDS011;54794;48.348;7.878;2023-03-03T22:29:38;13.98;;;6.20;;
68010;SDS011;54794;48.348;7.878;2023-03-03T22:32:05;12.27;;;6.70;;
68010;SDS011;54794;48.348;7.878;2023-03-03T22:34:32;12.48;;;6.88;;
68010;SDS011;54794;48.348;7.878;2023-03-03T22:36:59;9.73;;;5.75;;
68010;SDS011;54794;48.348;7.878;2023-03-03T22:39:26;12.27;;;5.95;;
68010;SDS011;54794;48.348;7.878;2023-03-03T22:41:52;10.68;;;5.68;;
68010;SDS011;54794;48.348;7.878;2023-03-03T22:44:19;11.55;;;5.80;;
68010;SDS011;54794;48.348;7.878;2023-03-03T22:46:46;12.18;;;7.38;;
68010;SDS011;54794;48.348;7.878;2023-03-03T22:49:13;12.82;;;6.55;;
68010;SDS011;54794;48.348;7.878;2023-03-03T22:51:40;14.68;;;7.13;;
68010;SDS011;54794;48.348;7.878;2023-03-03T22:54:07;13.07;;;7.03;;
68010;SDS011;54794;48.348;7.878;2023-03-03T22:56:34;12.63;;;6.30;;
68010;SDS011;54794;48.348;7.878;2023-03-03T22:59:00;10.48;;;6.28;;
68010;SDS011;54794;48.348;7.878;2023-03-03T23:01:27;15.18;;;6.47;;
68010;SDS011;54794;48.348;7.878;2023-03-03T23:03:55;12.35;;;6.45;;
68010;SDS011;54794;48.348;7.878;2023-03-03T23:06:21;11.83;;;6.67;;
68010;SDS011;54794;48.348;7.878;2023-03-03T23:08:48;11.85;;;6.35;;
68010;SDS011;54794;48.348;7.878;2023-03-03T23:11:15;12.57;;;6.38;;
68010;SDS011;54794;48.348;7.878;2023-03-03T23:13:42;11.68;;;6.47;;
68010;SDS011;54794;48.348;7.878;2023-03-03T23:16:09;11.48;;;6.72;;
68010;SDS011;54794;48.348;7.878;2023-03-03T23:18:36;12.40;;;6.68;;
68010;SDS011;54794;48.348;7.878;2023-03-03T23:21:03;12.15;;;6.45;;
68010;SDS011;54794;48.348;7.878;2023-03-03T23:23:30;12.90;;;6.50;;
68010;SDS011;54794;48.348;7.878;2023-03-03T23:25:57;11.50;;;6.05;;
68010;SDS011;54794;48.348;7.878;2023-03-03T23:28:24;12.48;;;6.10;;
68010;SDS011;54794;48.348;7.878;2023-03-03T23:30:51;13.45;;;6.00;;
68010;SDS011;54794;48.348;7.878;2023-03-03T23:33:18;9.75;;;6.10;;
68010;SDS011;54794;48.348;7.878;2023-03-03T23:35:45;11.70;;;5.75;;
68010;SDS011;54794;48.348;7.878;2023-03-03T23:38:14;13.35;;;6.47;;
68010;SDS011;54794;48.348;7.878;2023-03-03T23:40:43;11.15;;;5.75;;
68010;SDS011;54794;48.348;7.878;2023-03-03T23:43:12;11.52;;;6.05;;
68010;SDS011;54794;48.348;7.878;2023-03-03T23:45:39;9.57;;;5.55;;
68010;SDS011;54794;48.348;7.878;2023-03-03T23:48:06;10.75;;;5.93;;
68010;SDS011;54794;48.348;7.878;2023-03-03T23:50:34;10.10;;;5.72;;
68010;SDS011;54794;48.348;7.878;2023-03-03T23:53:05;11.35;;;5.95;;
68010;SDS011;54794;48.348;7.878;2023-03-03T23:55:33;11.45;;;6.07;;
68010;SDS011;54794;48.348;7.878;2023-03-03T23:58:01;12.45;;;6.10;;
